Time;durP1;ratioP1;P1;durP2;ratioP2;P2;SDS_P1;SDS_P2;PMS_P1;PMS_P2;Temp;Humidity;BMP_temperature;BMP_pressure;BME280_temperature;BME280_humidity;BME280_pressure;Samples;Min_cycle;Max_cycle;Signal;HPM_P1;HPM_P2
2022/04/27 00:02:14;;;;;;;0.57;0.57;;;;;;;6.45;82.99;97822.00;6249333;28;20383;-42
2022/04/27 00:05:18;;;;;;;0.60;0.47;;;;;;;6.41;83.19;97818.72;6250406;28;20235;-42
2022/04/27 00:08:20;;;;;;;0.57;0.47;;;;;;;6.36;83.07;97817.34;6249849;28;20314;-44
2022/04/27 00:11:23;;;;;;;0.40;0.40;;;;;;;6.36;82.67;97817.34;6249923;28;20250;-43
2022/04/27 00:14:25;;;;;;;0.50;0.40;;;;;;;6.39;82.21;97806.66;6225406;28;20321;-43
2022/04/27 00:17:27;;;;;;;0.40;0.40;;;;;;;6.39;82.59;97807.47;6246596;28;20239;-43
2022/04/27 00:20:30;;;;;;;0.40;0.40;;;;;;;6.40;82.64;97801.31;6249468;28;20245;-44
2022/04/27 00:23:33;;;;;;;0.30;0.30;;;;;;;6.38;82.71;97803.19;6248836;28;20235;-42
2022/04/27 00:26:36;;;;;;;0.30;0.30;;;;;;;6.38;82.63;97804.97;6249425;28;20242;-42
2022/04/27 00:29:38;;;;;;;0.37;0.37;;;;;;;6.34;82.27;97809.56;6249073;28;20304;-43
2022/04/27 00:32:40;;;;;;;0.50;0.50;;;;;;;6.33;82.16;97807.03;6230783;28;20716;-42
2022/04/27 00:35:42;;;;;;;0.40;0.40;;;;;;;6.29;82.44;97808.97;6226041;28;20235;-43
2022/04/27 00:38:44;;;;;;;0.20;0.20;;;;;;;6.30;81.77;97805.44;6228218;28;20236;-44
2022/04/27 00:41:59;;;;;;;0.30;0.30;;;;;;;6.25;81.32;97800.47;6227084;28;20259;-44
2022/04/27 00:45:03;;;;;;;0.23;0.23;;;;;;;6.25;81.44;97799.63;6202082;28;20308;-43
2022/04/27 00:48:06;;;;;;;0.30;0.30;;;;;;;6.26;81.12;97802.16;6226811;28;20240;-43
2022/04/27 00:51:11;;;;;;;0.40;0.30;;;;;;;6.27;81.78;97801.25;6228193;28;20235;-44
2022/04/27 00:54:14;;;;;;;0.20;0.20;;;;;;;6.24;81.96;97792.72;6225429;28;20243;-43
2022/04/27 00:57:16;;;;;;;0.47;0.23;;;;;;;6.20;81.29;97791.19;6228380;28;20216;-42
2022/04/27 01:04:53;;;;;;;0.40;0.40;;;;;;;6.14;80.85;97816.00;6219398;28;20720;-43
2022/04/27 01:08:00;;;;;;;0.60;0.20;;;;;;;6.15;81.39;97816.84;6227482;28;20243;-43
2022/04/27 01:11:05;;;;;;;0.30;0.30;;;;;;;6.17;81.09;97809.75;6227769;28;20227;-43
2022/04/27 01:14:13;;;;;;;0.30;0.30;;;;;;;6.19;81.61;97807.84;6221091;28;20228;-43
2022/04/27 01:17:16;;;;;;;0.30;0.30;;;;;;;6.19;81.32;97797.38;6227231;28;20609;-43
2022/04/27 01:20:18;;;;;;;0.23;0.20;;;;;;;6.18;81.27;97814.06;6192116;28;20260;-43
2022/04/27 01:23:21;;;;;;;0.20;0.20;;;;;;;6.18;81.86;97814.06;6222214;28;20227;-44
2022/04/27 01:26:23;;;;;;;0.20;0.20;;;;;;;6.18;81.83;97803.56;6208336;28;20596;-44
2022/04/27 01:29:26;;;;;;;0.30;0.30;;;;;;;6.17;81.34;97796.66;6202002;28;20246;-42
2022/04/27 01:32:28;;;;;;;0.30;0.30;;;;;;;6.16;81.56;97800.19;6204389;28;20241;-42
2022/04/27 01:35:30;;;;;;;0.20;0.20;;;;;;;6.16;81.90;97813.31;6202762;28;20259;-42
2022/04/27 01:38:40;;;;;;;0.20;0.20;;;;;;;6.15;81.50;97816.84;6203338;28;20229;-42
2022/04/27 01:41:43;;;;;;;0.30;0.30;;;;;;;6.13;82.12;97822.19;6203664;28;20235;-42
2022/04/27 01:44:45;;;;;;;0.23;0.23;;;;;;;6.14;82.28;97817.78;6206473;28;20802;-42
2022/04/27 01:47:48;;;;;;;0.20;0.20;;;;;;;6.09;80.56;97809.38;6208441;28;20259;-42
2022/04/27 01:50:50;;;;;;;0.30;0.30;;;;;;;6.12;81.33;97812.63;6207502;28;20228;-42
2022/04/27 01:54:26;;;;;;;0.30;0.30;;;;;;;6.14;81.35;97818.63;6217104;28;20277;-42
2022/04/27 01:57:24;;;;;;;0.30;0.30;;;;;;;6.15;81.23;97814.22;6207510;28;20237;-42
2022/04/27 02:00:26;;;;;;;0.30;0.30;;;;;;;6.15;81.11;97819.47;6205232;28;20635;-42
2022/04/27 02:03:28;;;;;;;0.97;0.40;;;;;;;6.15;81.20;97822.94;6205478;28;20259;-42
2022/04/27 02:06:35;;;;;;;0.30;0.30;;;;;;;6.14;80.42;97809.94;6206833;28;20251;-41
2022/04/27 02:09:43;;;;;;;0.40;0.40;;;;;;;6.14;80.56;97816.00;6225360;28;20251;-42
2022/04/27 02:12:46;;;;;;;0.90;0.50;;;;;;;6.16;80.51;97819.38;6224881;28;20382;-42
2022/04/27 02:15:55;;;;;;;0.50;0.43;;;;;;;6.16;80.10;97806.28;6205293;28;20224;-42
2022/04/27 02:19:06;;;;;;;0.50;0.50;;;;;;;6.18;79.96;97806.19;6209179;28;20732;-42
2022/04/27 02:22:08;;;;;;;0.60;0.40;;;;;;;6.19;80.43;97816.56;6206725;28;20240;-42
2022/04/27 02:25:10;;;;;;;0.67;0.57;;;;;;;6.19;80.81;97818.34;6206392;28;20783;-42
2022/04/27 02:28:13;;;;;;;0.40;0.40;;;;;;;6.14;80.38;97813.38;6206280;28;20238;-43
2022/04/27 02:31:15;;;;;;;0.67;0.67;;;;;;;6.16;80.70;97808.91;6205272;28;20291;-41
2022/04/27 02:34:19;;;;;;;0.30;0.30;;;;;;;6.17;80.26;97810.59;6206372;28;20233;-43
2022/04/27 02:37:22;;;;;;;1.70;0.40;;;;;;;6.17;80.73;97813.22;6204431;28;20236;-42
2022/04/27 02:40:31;;;;;;;0.40;0.40;;;;;;;6.18;80.14;97819.28;6205365;28;20248;-42
2022/04/27 02:43:34;;;;;;;0.70;0.40;;;;;;;6.21;80.11;97813.84;6204849;28;20622;-42
2022/04/27 02:46:38;;;;;;;0.40;0.40;;;;;;;6.21;80.71;97814.69;6204173;28;20247;-42
2022/04/27 02:53:04;;;;;;;0.50;0.50;;;;;;;6.22;80.34;97819.00;6221876;28;20257;-42
2022/04/27 02:56:08;;;;;;;1.10;0.50;;;;;;;6.23;80.42;97825.94;6203341;28;20232;-41
2022/04/27 02:59:11;;;;;;;0.50;0.50;;;;;;;6.23;80.40;97840.81;6206006;28;20606;-42
2022/04/27 03:02:16;;;;;;;0.50;0.50;;;;;;;6.22;80.24;97837.34;6205024;28;20266;-42
2022/04/27 03:05:19;;;;;;;1.27;0.50;;;;;;;6.22;80.34;97834.72;6203945;28;20232;-43
2022/04/27 03:08:21;;;;;;;1.43;0.60;;;;;;;6.23;79.99;97835.56;6203423;28;20229;-42
2022/04/27 03:11:26;;;;;;;0.80;0.60;;;;;;;6.25;80.16;97816.22;6204811;28;20227;-42
2022/04/27 03:14:53;;;;;;;0.60;0.60;;;;;;;6.25;80.70;97833.72;6203822;28;20229;-44
2022/04/27 03:21:18;;;;;;;0.60;0.60;;;;;;;6.27;80.73;97831.84;6227388;28;20305;-42
2022/04/27 03:24:21;;;;;;;0.73;0.73;;;;;;;6.28;80.94;97825.66;6215851;28;20237;-42
2022/04/27 03:27:24;;;;;;;0.63;0.63;;;;;;;6.28;80.79;97830.91;6199962;28;20259;-42
2022/04/27 03:30:27;;;;;;;0.77;0.70;;;;;;;6.29;81.04;97829.94;6202661;28;20270;-42
2022/04/27 03:33:32;;;;;;;0.97;0.70;;;;;;;6.27;81.24;97843.16;6204354;28;20224;-41
2022/04/27 03:36:34;;;;;;;0.60;0.60;;;;;;;6.25;81.61;97842.41;6204381;28;20544;-44
2022/04/27 03:39:36;;;;;;;0.57;0.57;;;;;;;6.28;80.94;97846.63;6203570;28;20237;-42
2022/04/27 03:42:51;;;;;;;1.63;0.63;;;;;;;6.29;81.11;97853.53;6205308;28;20327;-42
2022/04/27 03:45:54;;;;;;;0.80;0.80;;;;;;;6.26;81.99;97853.75;6205437;28;20236;-43
2022/04/27 03:48:56;;;;;;;1.70;0.90;;;;;;;6.25;81.64;97863.38;6202785;28;20240;-41
2022/04/27 03:51:58;;;;;;;0.90;0.90;;;;;;;6.26;82.10;97869.47;6204046;28;20241;-42
2022/04/27 03:55:01;;;;;;;1.77;1.20;;;;;;;6.27;81.96;97872.00;6203391;28;20234;-42
2022/04/27 03:58:10;;;;;;;2.07;1.20;;;;;;;6.30;81.52;97884.91;6203001;28;20738;-41
2022/04/27 04:01:13;;;;;;;1.23;1.10;;;;;;;6.32;81.71;97883.97;6202638;28;20233;-43
2022/04/27 04:04:15;;;;;;;1.13;1.00;;;;;;;6.33;81.61;97893.50;6202795;28;20236;-41
2022/04/27 04:07:18;;;;;;;1.27;1.17;;;;;;;6.32;81.64;97895.28;6202153;28;20236;-43
2022/04/27 04:10:28;;;;;;;1.43;1.33;;;;;;;6.35;80.72;97900.38;6203505;28;20240;-41
2022/04/27 04:13:30;;;;;;;2.27;1.30;;;;;;;6.39;80.76;97911.50;6201979;28;20222;-41
2022/04/27 04:16:49;;;;;;;1.80;1.10;;;;;;;6.40;80.55;97907.94;6204586;28;20225;-43
2022/04/27 04:20:01;;;;;;;3.10;1.43;;;;;;;6.42;80.99;97908.69;6219854;28;20684;-41
2022/04/27 04:23:21;;;;;;;1.50;1.30;;;;;;;6.41;80.80;97909.63;6210233;28;20229;-42
2022/04/27 04:29:51;;;;;;;1.50;1.40;;;;;;;6.41;80.17;97918.34;6218939;28;20236;-43
2022/04/27 04:32:54;;;;;;;1.50;1.23;;;;;;;6.42;80.87;97917.41;6219350;28;20233;-42
2022/04/27 04:36:19;;;;;;;1.57;1.30;;;;;;;6.44;80.50;97922.56;6205459;28;20236;-43
2022/04/27 04:39:21;;;;;;;2.50;1.80;;;;;;;6.46;80.95;97918.06;6242841;28;20236;-42
2022/04/27 04:42:25;;;;;;;1.93;1.70;;;;;;;6.48;80.82;97930.16;6222860;28;20228;-42
2022/04/27 04:45:29;;;;;;;2.33;1.53;;;;;;;6.50;80.37;97930.03;6207025;28;20711;-42
2022/04/27 04:48:49;;;;;;;1.63;1.53;;;;;;;6.49;80.22;97931.00;6203385;28;20233;-42
2022/04/27 04:52:13;;;;;;;2.43;1.40;;;;;;;6.49;80.62;97928.38;6202310;28;20232;-41
2022/04/27 04:55:25;;;;;;;2.10;1.90;;;;;;;6.48;80.82;97939.81;6201789;28;20245;-42
2022/04/27 04:58:42;;;;;;;2.70;1.70;;;;;;;6.46;81.30;97942.50;6204642;28;20236;-41
2022/04/27 05:02:07;;;;;;;1.73;1.60;;;;;;;6.44;80.84;97947.00;6203163;28;20236;-41
2022/04/27 05:05:28;;;;;;;2.87;1.70;;;;;;;6.44;81.65;97947.00;6203489;28;20323;-42
2022/04/27 05:08:50;;;;;;;2.00;1.77;;;;;;;6.44;81.14;97954.84;6203844;28;20653;-43
2022/04/27 05:12:28;;;;;;;1.87;1.70;;;;;;;6.45;81.75;97959.16;6211941;28;20279;-41
2022/04/27 05:15:50;;;;;;;2.40;2.20;;;;;;;6.46;81.41;97963.47;6216834;28;20233;-43
2022/04/27 05:19:11;;;;;;;2.63;2.33;;;;;;;6.47;80.92;97956.47;6207327;28;20236;-42
2022/04/27 05:22:36;;;;;;;2.43;2.20;;;;;;;6.54;80.50;97969.09;6209350;28;20247;-41
2022/04/27 05:26:08;;;;;;;3.73;2.90;;;;;;;6.54;80.45;97968.25;6236633;28;20720;-41
2022/04/27 05:33:09;;;;;;;2.83;1.97;;;;;;;6.60;80.35;97981.00;6205625;28;20688;-41
2022/04/27 05:36:37;;;;;;;2.07;1.90;;;;;;;6.59;80.43;97987.19;6221372;28;20476;-41
2022/04/27 05:40:18;;;;;;;2.30;2.10;;;;;;;6.58;81.28;97991.59;6207055;28;20241;-42
2022/04/27 05:43:34;;;;;;;2.33;2.13;;;;;;;6.57;80.95;97989.06;6206395;28;20568;-41
2022/04/27 05:47:03;;;;;;;2.43;2.10;;;;;;;6.53;81.53;97998.88;6208480;28;20422;-43
2022/04/27 05:50:26;;;;;;;2.80;2.20;;;;;;;6.54;81.37;98002.34;6207742;28;20231;-41
2022/04/27 05:53:36;;;;;;;2.80;2.50;;;;;;;6.56;81.92;98003.09;6206212;28;20239;-42
2022/04/27 05:57:05;;;;;;;4.13;3.20;;;;;;;6.58;81.83;98009.97;6207187;28;20383;-43
2022/04/27 06:00:17;;;;;;;2.53;2.33;;;;;;;6.58;82.31;98012.59;6245183;28;20266;-44
2022/04/27 06:03:26;;;;;;;3.10;2.77;;;;;;;6.59;82.35;98013.41;6204916;28;20259;-42
2022/04/27 06:06:33;;;;;;;3.40;2.90;;;;;;;6.60;82.75;98018.56;6205521;28;20226;-43
2022/04/27 06:09:39;;;;;;;3.90;2.90;;;;;;;6.62;83.15;98018.47;6206341;28;20236;-43
2022/04/27 06:12:53;;;;;;;3.20;2.70;;;;;;;6.64;82.97;98008.75;6206080;28;20242;-42
2022/04/27 06:16:14;;;;;;;4.07;3.20;;;;;;;6.66;83.15;98012.13;6187585;28;20234;-43
2022/04/27 06:19:35;;;;;;;3.00;2.40;;;;;;;6.72;83.31;98021.38;6196696;28;20237;-43
2022/04/27 06:22:42;;;;;;;4.57;3.10;;;;;;;6.75;83.58;98013.34;6206169;28;20295;-43
2022/04/27 06:25:49;;;;;;;3.60;3.30;;;;;;;6.79;83.51;98020.94;6213730;28;20235;-44
2022/04/27 06:29:01;;;;;;;3.93;2.60;;;;;;;6.83;83.40;98021.59;6204455;28;20235;-43
2022/04/27 06:32:04;;;;;;;3.67;3.37;;;;;;;6.91;83.79;98019.34;6204658;28;20228;-44
2022/04/27 06:35:09;;;;;;;3.67;2.90;;;;;;;7.06;83.04;98017.59;6205637;28;20236;-43
2022/04/27 06:38:13;;;;;;;4.03;2.80;;;;;;;7.19;83.24;98018.53;6205344;28;20324;-43
2022/04/27 06:41:42;;;;;;;3.00;2.70;;;;;;;7.40;83.27;98017.19;6204188;28;20224;-42
2022/04/27 06:45:00;;;;;;;3.63;2.67;;;;;;;7.60;82.97;98015.94;6206185;28;20243;-43
2022/04/27 06:48:21;;;;;;;3.17;2.60;;;;;;;7.84;82.61;98016.19;6207654;28;20242;-43
2022/04/27 06:51:41;;;;;;;3.13;2.47;;;;;;;8.03;82.57;98009.66;6229878;28;20221;-43
2022/04/27 06:55:02;;;;;;;2.50;2.27;;;;;;;8.24;82.21;98009.19;6216967;28;20321;-43
2022/04/27 06:58:35;;;;;;;2.37;1.70;;;;;;;8.47;81.86;98012.03;6244679;28;20702;-41
2022/04/27 07:01:49;;;;;;;2.20;2.00;;;;;;;8.77;81.93;98016.19;6215119;28;20235;-43
2022/04/27 07:04:59;;;;;;;2.10;1.90;;;;;;;9.05;81.52;98005.47;6203230;28;20244;-43
2022/04/27 07:08:01;;;;;;;2.03;1.83;;;;;;;9.27;80.10;98012.72;6203970;28;20740;-43
2022/04/27 07:11:03;;;;;;;2.17;1.80;;;;;;;9.42;79.67;98018.69;6205155;28;20239;-43
2022/04/27 07:14:06;;;;;;;2.37;2.17;;;;;;;9.55;79.10;98025.63;6205365;28;20253;-42
2022/04/27 07:17:08;;;;;;;4.20;2.33;;;;;;;9.59;79.29;98019.19;6204883;28;20232;-45
2022/04/27 07:20:11;;;;;;;2.30;2.00;;;;;;;9.63;79.88;98023.28;6205140;28;20240;-42
2022/04/27 07:23:13;;;;;;;1.70;1.57;;;;;;;9.56;78.89;98023.84;6209065;28;20234;-44
2022/04/27 07:26:15;;;;;;;1.00;0.90;;;;;;;9.40;78.21;98029.34;6223918;28;20331;-45
2022/04/27 07:29:18;;;;;;;1.37;1.27;;;;;;;9.41;78.87;98036.28;6205709;28;20251;-44
2022/04/27 07:32:23;;;;;;;1.60;1.30;;;;;;;9.46;79.28;98031.56;6205024;28;20646;-44
2022/04/27 07:35:25;;;;;;;1.20;1.03;;;;;;;9.46;78.47;98034.19;6204516;28;20715;-44
2022/04/27 07:38:28;;;;;;;1.73;1.50;;;;;;;9.41;78.20;98035.44;6204309;28;20242;-44
2022/04/27 07:41:30;;;;;;;2.10;1.90;;;;;;;9.37;77.85;98034.00;6204426;28;20232;-46
2022/04/27 07:44:32;;;;;;;1.43;1.33;;;;;;;9.41;78.22;98044.19;6203546;28;20318;-45
2022/04/27 07:47:44;;;;;;;2.50;2.30;;;;;;;9.36;78.73;98038.41;6203488;28;20852;-44
2022/04/27 07:50:46;;;;;;;2.40;2.20;;;;;;;9.29;78.19;98058.22;6204940;28;20236;-46
2022/04/27 07:53:49;;;;;;;3.30;2.30;;;;;;;9.16;77.60;98062.66;6209294;28;20356;-47
2022/04/27 07:56:51;;;;;;;4.57;2.60;;;;;;;9.08;77.73;98060.56;6204993;28;20813;-44
2022/04/27 07:59:53;;;;;;;4.40;3.00;;;;;;;9.07;77.29;98056.22;6205363;28;20238;-42
2022/04/27 08:02:55;;;;;;;3.30;2.73;;;;;;;9.02;78.33;98065.38;6204229;28;20322;-42
2022/04/27 08:06:01;;;;;;;3.83;3.53;;;;;;;8.93;78.15;98077.38;6204571;28;20238;-42
2022/04/27 08:09:04;;;;;;;4.33;3.57;;;;;;;8.83;78.74;98085.03;6203600;28;20246;-42
2022/04/27 08:12:06;;;;;;;3.57;3.00;;;;;;;8.76;80.26;98082.94;6221710;28;20229;-42
2022/04/27 08:15:10;;;;;;;3.67;3.20;;;;;;;8.66;79.94;98093.22;6227586;28;20232;-43
2022/04/27 08:18:12;;;;;;;3.67;3.20;;;;;;;8.56;79.85;98086.03;6227314;28;20223;-42
2022/04/27 08:21:14;;;;;;;5.77;2.90;;;;;;;8.41;80.71;98098.38;6228745;28;20231;-43
2022/04/27 08:24:19;;;;;;;3.37;2.60;;;;;;;8.39;81.46;98100.25;6229886;28;20254;-44
2022/04/27 08:27:21;;;;;;;2.73;2.50;;;;;;;8.35;80.72;98097.00;6224999;28;20319;-43
2022/04/27 08:30:23;;;;;;;4.13;2.30;;;;;;;8.27;81.03;98096.63;6203291;28;20219;-42
2022/04/27 08:33:26;;;;;;;2.37;2.07;;;;;;;8.20;81.38;98097.09;6204267;28;20231;-42
2022/04/27 08:36:28;;;;;;;1.63;1.53;;;;;;;8.22;81.15;98106.56;6204877;28;20253;-43
2022/04/27 08:39:32;;;;;;;3.70;1.57;;;;;;;8.22;81.00;98101.31;6202947;28;20262;-42
2022/04/27 08:42:34;;;;;;;1.40;1.30;;;;;;;8.20;81.02;98104.97;6204244;28;20239;-42
2022/04/27 08:45:38;;;;;;;1.97;1.70;;;;;;;8.06;80.65;98101.47;6204705;28;20313;-42
2022/04/27 08:48:45;;;;;;;2.00;1.80;;;;;;;8.05;81.15;98105.03;6204504;28;20718;-42
2022/04/27 08:51:48;;;;;;;2.60;2.03;;;;;;;8.06;80.97;98105.88;6204509;28;20282;-42
2022/04/27 08:54:51;;;;;;;2.37;1.70;;;;;;;8.18;80.93;98112.16;6208358;28;20278;-43
2022/04/27 08:58:07;;;;;;;2.90;1.70;;;;;;;8.21;80.50;98115.41;6208646;28;20228;-43
2022/04/27 09:01:29;;;;;;;7.13;2.40;;;;;;;8.08;80.75;98111.88;6208259;28;20360;-44
2022/04/27 09:05:16;;;;;;;1.93;1.77;;;;;;;8.14;81.16;98114.13;6209142;28;20330;-43
2022/04/27 09:08:18;;;;;;;2.47;2.07;;;;;;;8.21;81.12;98110.16;6207664;28;20593;-42
2022/04/27 09:11:25;;;;;;;3.03;2.10;;;;;;;8.30;81.09;98108.72;6208186;28;20744;-43
2022/04/27 09:14:38;;;;;;;2.40;2.20;;;;;;;8.32;81.84;98114.75;6201648;28;20299;-45
2022/04/27 09:21:02;;;;;;;2.60;2.27;;;;;;;8.43;80.69;98114.91;6206966;28;20284;-42
2022/04/27 09:24:04;;;;;;;2.70;2.50;;;;;;;8.39;80.92;98105.50;6230699;28;20219;-42
2022/04/27 09:27:10;;;;;;;2.70;2.40;;;;;;;8.38;81.42;98117.00;6232167;28;20214;-44
2022/04/27 09:30:14;;;;;;;3.50;2.70;;;;;;;8.35;80.74;98111.94;6232457;28;20234;-43
2022/04/27 09:33:37;;;;;;;2.47;2.23;;;;;;;8.44;81.17;98119.22;6231729;28;20212;-42
2022/04/27 09:36:41;;;;;;;3.03;2.70;;;;;;;8.50;81.08;98121.44;6231096;28;20260;-42
2022/04/27 09:40:00;;;;;;;3.13;2.83;;;;;;;8.52;80.53;98116.94;6232016;28;20227;-43
2022/04/27 09:43:02;;;;;;;3.30;3.00;;;;;;;8.49;80.37;98119.75;6231875;28;20237;-44
2022/04/27 09:46:17;;;;;;;3.57;3.07;;;;;;;8.50;80.23;98119.66;6231174;28;20311;-42
2022/04/27 09:49:20;;;;;;;3.40;3.10;;;;;;;8.56;80.27;98112.34;6231572;28;20247;-42
2022/04/27 09:52:33;;;;;;;3.50;3.20;;;;;;;8.60;80.68;98111.16;6229689;28;20250;-42
2022/04/27 09:55:36;;;;;;;3.60;3.30;;;;;;;8.65;80.33;98109.94;6222711;28;20240;-43
2022/04/27 09:58:47;;;;;;;5.27;3.70;;;;;;;8.70;80.46;98115.72;6231348;28;20233;-44
2022/04/27 11:01:55;;;;;;;2.67;2.20;;;;;;;9.00;78.17;98112.00;5713990;28;20382;-43
2022/04/27 11:04:57;;;;;;;2.67;2.47;;;;;;;9.18;78.41;98106.34;6204873;28;20239;-42
2022/04/27 11:08:21;;;;;;;2.60;2.40;;;;;;;9.33;78.20;98103.63;6204881;28;20256;-44
2022/04/27 11:11:26;;;;;;;2.87;2.60;;;;;;;9.41;76.23;98096.88;6205452;28;20233;-43
2022/04/27 11:14:34;;;;;;;3.30;2.70;;;;;;;9.48;76.30;98107.84;6194053;28;20240;-43
2022/04/27 11:17:40;;;;;;;2.97;2.67;;;;;;;9.56;75.89;98109.00;6205814;28;20310;-43
2022/04/27 11:20:43;;;;;;;2.60;2.13;;;;;;;9.55;76.11;98106.47;6204866;28;20237;-43
2022/04/27 11:23:46;;;;;;;2.47;2.27;;;;;;;9.70;75.44;98101.91;6211433;28;20237;-43
2022/04/27 11:26:49;;;;;;;2.87;2.50;;;;;;;9.73;75.98;98099.91;6209929;28;20266;-41
2022/04/27 11:29:52;;;;;;;3.50;2.70;;;;;;;9.72;74.84;98102.66;6209473;28;20235;-41
2022/04/27 11:32:55;;;;;;;2.77;2.50;;;;;;;9.71;74.28;98106.22;6205607;28;20231;-42
2022/04/27 11:35:58;;;;;;;2.60;2.40;;;;;;;9.72;74.59;98105.28;6204232;28;20255;-42
2022/04/27 11:39:00;;;;;;;3.70;2.30;;;;;;;9.80;74.04;98109.06;6206558;28;20235;-42
2022/04/27 11:42:03;;;;;;;3.80;2.40;;;;;;;9.81;74.08;98107.28;6204330;28;20271;-42
2022/04/27 11:45:06;;;;;;;2.80;2.27;;;;;;;10.02;73.91;98099.66;6229450;28;20219;-42
2022/04/27 11:48:10;;;;;;;2.30;2.10;;;;;;;10.24;74.10;98097.19;6230309;28;20215;-42
2022/04/27 11:51:12;;;;;;;2.60;2.27;;;;;;;10.41;73.13;98095.97;6230628;28;20196;-41
2022/04/27 11:54:28;;;;;;;2.13;1.93;;;;;;;10.61;72.57;98095.34;6216425;28;20368;-41
2022/04/27 11:57:34;;;;;;;2.87;2.10;;;;;;;10.96;71.82;98092.72;6224111;28;20456;-42
2022/04/27 12:00:37;;;;;;;2.20;2.00;;;;;;;11.28;70.91;98085.00;6203885;28;20625;-42
2022/04/27 12:03:41;;;;;;;3.20;2.87;;;;;;;11.38;69.23;98091.25;6204355;28;20237;-43
2022/04/27 12:06:45;;;;;;;3.33;2.20;;;;;;;11.39;69.41;98091.13;6202138;28;20282;-41
2022/04/27 12:10:05;;;;;;;2.83;2.63;;;;;;;11.28;68.87;98087.66;6203965;28;20232;-41
2022/04/27 12:13:12;;;;;;;2.43;2.23;;;;;;;11.32;69.32;98089.09;6204010;28;20232;-42
2022/04/27 12:16:14;;;;;;;4.70;3.13;;;;;;;11.45;70.87;98092.47;6205233;28;20236;-41
2022/04/27 12:19:27;;;;;;;3.20;2.63;;;;;;;11.36;69.52;98093.19;6189242;28;20607;-42
2022/04/27 12:22:29;;;;;;;4.30;2.57;;;;;;;11.48;69.50;98089.56;6204357;28;20244;-41
2022/04/27 12:25:55;;;;;;;2.50;2.30;;;;;;;11.66;68.96;98082.03;6183769;28;20324;-41
2022/04/27 12:28:58;;;;;;;2.20;2.00;;;;;;;11.96;69.00;98089.38;6203008;28;20217;-41
2022/04/27 12:32:02;;;;;;;2.80;2.43;;;;;;;12.24;68.36;98083.56;6203532;28;20240;-42
2022/04/27 12:38:30;;;;;;;2.30;2.10;;;;;;;12.51;67.85;98081.31;6207894;28;20241;-42
2022/04/27 12:41:44;;;;;;;3.00;2.47;;;;;;;12.58;66.66;98073.69;6208639;28;20712;-42
2022/04/27 12:44:46;;;;;;;3.93;2.90;;;;;;;12.65;65.75;98069.59;6203799;28;20503;-42
2022/04/27 12:47:50;;;;;;;4.63;2.83;;;;;;;12.55;65.92;98074.81;6204570;28;20621;-43
2022/04/27 12:50:52;;;;;;;3.03;2.40;;;;;;;12.58;64.95;98079.00;6202881;28;20313;-41
2022/04/27 12:53:54;;;;;;;2.83;2.63;;;;;;;12.48;64.52;98076.28;6203993;28;20254;-41
2022/04/27 12:57:00;;;;;;;3.23;2.70;;;;;;;12.55;64.01;98069.53;6203751;28;20225;-44
2022/04/27 13:00:04;;;;;;;2.67;2.47;;;;;;;12.72;63.99;98065.47;6203423;28;20706;-42
2022/04/27 13:03:08;;;;;;;2.90;2.60;;;;;;;12.84;65.16;98063.63;6228565;28;20262;-42
2022/04/27 13:06:10;;;;;;;3.40;3.10;;;;;;;12.84;64.67;98075.06;6226620;28;20329;-41
2022/04/27 13:12:36;;;;;;;3.70;3.40;;;;;;;13.08;62.80;98060.72;6228969;28;20237;-42
2022/04/27 13:15:38;;;;;;;3.63;3.17;;;;;;;12.80;63.10;98068.31;6227678;28;20777;-41
2022/04/27 13:18:40;;;;;;;3.20;2.90;;;;;;;12.87;63.75;98073.97;6224342;28;20264;-43
2022/04/27 13:21:42;;;;;;;3.20;3.00;;;;;;;13.07;63.42;98064.34;6228153;28;20225;-41
2022/04/27 13:24:45;;;;;;;4.03;3.60;;;;;;;13.11;63.00;98069.25;6208383;28;20267;-42
2022/04/27 13:27:55;;;;;;;4.07;3.50;;;;;;;13.21;62.22;98070.19;6190348;28;20373;-43
2022/04/27 13:30:58;;;;;;;4.10;3.70;;;;;;;13.26;62.38;98069.81;6218259;28;20320;-42
2022/04/27 13:34:00;;;;;;;4.20;3.57;;;;;;;13.38;62.14;98070.56;6225252;28;20250;-42
2022/04/27 13:37:02;;;;;;;4.57;4.00;;;;;;;13.48;59.96;98074.94;6218991;28;20238;-44
2022/04/27 13:40:05;;;;;;;3.70;3.40;;;;;;;13.68;59.39;98073.22;6207354;28;20672;-42
2022/04/27 13:43:08;;;;;;;4.37;3.97;;;;;;;13.82;60.27;98072.88;6216292;28;20245;-44
2022/04/27 13:46:10;;;;;;;4.57;3.60;;;;;;;13.62;60.28;98068.47;6230274;28;20279;-43
2022/04/27 13:49:12;;;;;;;4.87;3.77;;;;;;;13.25;61.76;98070.78;6229761;28;20245;-43
2022/04/27 13:52:15;;;;;;;5.53;4.13;;;;;;;12.92;62.11;98069.13;6231565;28;20237;-44
2022/04/27 13:55:17;;;;;;;4.00;3.60;;;;;;;12.58;64.15;98074.53;6218403;28;20230;-44
2022/04/27 13:58:21;;;;;;;4.20;3.80;;;;;;;12.36;64.53;98077.28;6220408;28;20724;-43
2022/04/27 14:01:49;;;;;;;3.70;3.30;;;;;;;12.25;65.35;98074.66;6206100;28;20319;-41
2022/04/27 14:04:53;;;;;;;5.20;4.27;;;;;;;12.04;64.79;98081.69;6206504;28;20259;-42
2022/04/27 14:07:55;;;;;;;4.23;3.73;;;;;;;12.01;66.03;98076.63;6202613;28;20235;-43
2022/04/27 14:10:59;;;;;;;4.43;4.03;;;;;;;12.12;66.06;98084.53;6207042;28;20233;-43
2022/04/27 14:14:06;;;;;;;3.87;3.57;;;;;;;12.19;65.86;98081.28;6206751;28;20319;-42
2022/04/27 14:20:31;;;;;;;6.43;3.87;;;;;;;12.04;65.60;98084.31;6206078;28;20682;-43
2022/04/27 14:23:33;;;;;;;5.03;4.57;;;;;;;11.95;65.99;98080.59;6215680;28;20750;-42
2022/04/27 14:26:37;;;;;;;5.33;3.73;;;;;;;11.78;66.03;98089.00;6220965;28;20223;-42
2022/04/27 14:29:39;;;;;;;4.30;3.90;;;;;;;11.57;66.60;98088.88;6206324;28;20227;-44
2022/04/27 14:32:42;;;;;;;4.93;4.53;;;;;;;11.40;66.61;98092.81;6206718;28;20238;-42
2022/04/27 14:35:45;;;;;;;4.73;4.17;;;;;;;11.31;67.00;98088.22;6206485;28;20230;-42
2022/04/27 14:38:48;;;;;;;4.50;4.10;;;;;;;11.29;67.07;98094.59;6180222;28;20241;-43
2022/04/27 14:41:51;;;;;;;4.40;4.00;;;;;;;11.21;66.57;98086.41;6203976;28;20234;-43
2022/04/27 14:44:53;;;;;;;4.63;4.17;;;;;;;11.20;66.32;98082.09;6206223;28;20237;-42
2022/04/27 14:47:56;;;;;;;4.40;4.00;;;;;;;11.37;66.26;98090.44;6205556;28;20259;-43
2022/04/27 14:50:58;;;;;;;4.60;4.03;;;;;;;11.46;65.15;98088.88;6206199;28;20315;-46
2022/04/27 14:54:00;;;;;;;4.47;4.07;;;;;;;11.67;65.25;98087.22;6203552;28;20692;-44
2022/04/27 14:57:03;;;;;;;6.03;4.57;;;;;;;11.93;64.02;98097.56;6229251;28;20316;-44
2022/04/27 15:00:07;;;;;;;5.43;3.67;;;;;;;12.03;63.97;98095.88;6230648;28;20265;-43
2022/04/27 15:03:10;;;;;;;4.30;3.83;;;;;;;12.08;65.11;98101.63;6230160;28;20236;-43
2022/04/27 15:06:15;;;;;;;5.50;3.97;;;;;;;12.05;64.07;98097.44;6229354;28;20222;-43
2022/04/27 15:09:17;;;;;;;4.27;3.83;;;;;;;12.16;63.24;98092.13;6229025;28;20236;-42
2022/04/27 15:12:19;;;;;;;6.70;4.00;;;;;;;12.31;63.03;98095.34;6223845;28;20219;-42
2022/04/27 15:15:23;;;;;;;4.57;4.13;;;;;;;12.27;62.71;98099.22;6229222;28;20241;-43
2022/04/27 15:18:25;;;;;;;5.23;4.70;;;;;;;12.16;62.49;98102.72;6228485;28;20227;-42
2022/04/27 15:24:48;;;;;;;4.63;4.00;;;;;;;11.69;63.61;98100.28;6206505;28;20837;-44
2022/04/27 15:27:51;;;;;;;7.07;4.17;;;;;;;11.57;64.13;98109.19;6205254;28;20233;-43
2022/04/27 15:30:53;;;;;;;3.63;3.33;;;;;;;11.49;64.52;98101.81;6205130;28;20306;-44
2022/04/27 15:33:55;;;;;;;4.97;4.33;;;;;;;11.49;64.77;98096.53;6205660;28;20601;-42
2022/04/27 15:36:58;;;;;;;4.53;3.60;;;;;;;11.55;64.90;98103.16;6203039;28;20248;-44
2022/04/27 15:40:00;;;;;;;3.53;3.23;;;;;;;11.70;65.03;98107.25;6204321;28;20658;-41
2022/04/27 15:43:06;;;;;;;4.60;3.13;;;;;;;11.83;65.37;98113.31;6204819;28;20324;-42
2022/04/27 15:46:28;;;;;;;3.03;2.83;;;;;;;12.02;65.72;98121.47;6204580;28;20229;-42
2022/04/27 15:49:31;;;;;;;4.10;3.30;;;;;;;12.43;64.64;98118.16;6203821;28;20243;-42
2022/04/27 15:52:35;;;;;;;4.60;4.20;;;;;;;12.78;61.68;98125.03;6204625;28;20235;-42
2022/04/27 15:55:38;;;;;;;5.07;4.07;;;;;;;12.79;60.15;98106.38;6203905;28;20234;-43
2022/04/27 15:58:41;;;;;;;3.77;3.40;;;;;;;13.09;59.31;98112.75;6204638;28;20727;-45
2022/04/27 16:01:43;;;;;;;5.73;3.73;;;;;;;13.30;57.73;98130.38;6203205;28;20265;-44
2022/04/27 16:04:46;;;;;;;5.97;3.97;;;;;;;13.05;58.39;98119.28;6203573;28;20237;-43
2022/04/27 16:07:48;;;;;;;4.23;3.63;;;;;;;12.74;58.84;98127.13;6203171;28;20291;-43
2022/04/27 16:10:51;;;;;;;4.53;3.97;;;;;;;12.50;59.53;98131.75;6202845;28;20632;-44
2022/04/27 16:13:53;;;;;;;4.53;3.80;;;;;;;12.28;60.05;98127.31;6203653;28;20321;-43
2022/04/27 16:16:56;;;;;;;3.97;3.57;;;;;;;11.96;60.95;98143.13;6203642;28;20236;-44
2022/04/27 16:20:03;;;;;;;4.53;4.10;;;;;;;11.74;61.59;98145.72;6204551;28;20317;-43
2022/04/27 16:23:08;;;;;;;4.53;3.90;;;;;;;11.57;62.16;98136.47;6202259;28;20350;-43